Terminal Aerodrome Forecast
Issued by NWS Cleveland, OH

Home | Current Version | Previous Version | Graphics & Text | Print | Product List | Glossary On
Versions: 1 2 3 4 5 6 7 8 9 10 11 12 13 14 15 16
000
FTUS41 KCLE 241100
TAFMFD
TAF
KMFD 241128Z 2412/2512 26002KT P6SM SKC
     FM241600 29010KT P6SM FEW050 SCT250
     FM250200 11003KT P6SM SCT120 BKN200=

USA.gov is the U.S. government's official web portal to all federal, state and local government web resources and services.